Time;durP1;ratioP1;P1;durP2;ratioP2;P2;SDS_P1;SDS_P2;PMS_P1;PMS_P2;Temp;Humidity;BMP_temperature;BMP_pressure;BME280_temperature;BME280_humidity;BME280_pressure;Samples;Min_cycle;Max_cycle;Signal;HPM_P1;HPM_P2
2022/04/06 00:00:21;;;;;;;10.10;8.95;;;;;;;6.06;86.54;97670.22;1748202;81;20995;-36
2022/04/06 00:02:47;;;;;;;15.08;10.55;;;;;;;6.07;87.85;97669.27;1748068;81;20991;-37
2022/04/06 00:05:14;;;;;;;11.12;9.60;;;;;;;6.10;88.26;97670.39;1748116;81;20999;-36
2022/04/06 00:07:41;;;;;;;12.35;10.03;;;;;;;6.12;88.04;97665.91;1748122;81;20995;-36
2022/04/06 00:10:11;;;;;;;12.20;9.93;;;;;;;6.15;86.41;97664.90;1748072;81;20988;-38
2022/04/06 00:12:38;;;;;;;14.43;9.85;;;;;;;6.09;89.41;97676.56;1748089;81;21519;-38
2022/04/06 00:15:08;;;;;;;11.73;10.15;;;;;;;6.13;88.44;97675.43;1748261;81;20987;-37
2022/04/06 00:17:34;;;;;;;12.58;10.03;;;;;;;6.11;89.17;97672.53;1748086;81;21035;-38
2022/04/06 00:19:59;;;;;;;12.30;10.08;;;;;;;6.12;88.42;97663.30;1748073;82;21497;-39
2022/04/06 00:22:25;;;;;;;16.15;11.55;;;;;;;6.16;88.46;97660.03;1748121;81;20964;-39
2022/04/06 00:24:56;;;;;;;12.43;9.95;;;;;;;6.18;87.73;97661.24;1748107;81;20991;-37
2022/04/06 00:27:19;;;;;;;14.20;11.00;;;;;;;6.13;90.00;97653.69;1747264;81;21437;-38
2022/04/06 00:29:45;;;;;;;13.95;10.93;;;;;;;6.17;89.22;97656.50;1748176;81;21454;-37
2022/04/06 00:32:11;;;;;;;13.03;10.35;;;;;;;6.17;89.58;97644.75;1748055;82;20987;-38
2022/04/06 00:37:22;;;;;;;15.18;10.82;;;;;;;6.22;89.29;97648.36;1748322;82;20951;-39
2022/04/06 00:39:47;;;;;;;17.17;11.88;;;;;;;6.21;89.65;97644.09;1748058;81;21513;-38
2022/04/06 00:42:14;;;;;;;14.13;11.70;;;;;;;6.24;88.61;97642.56;1747004;82;21031;-38
2022/04/06 00:44:40;;;;;;;17.12;12.05;;;;;;;6.25;88.58;97633.81;1747657;81;21533;-38
2022/04/06 00:47:07;;;;;;;16.87;11.97;;;;;;;6.26;89.50;97632.89;1748086;81;21030;-38
2022/04/06 00:49:34;;;;;;;15.25;12.47;;;;;;;6.32;88.38;97626.78;1747765;80;21474;-37
2022/04/06 00:52:04;;;;;;;16.60;13.15;;;;;;;6.28;90.39;97617.97;1748138;81;20984;-39
2022/04/06 00:54:32;;;;;;;16.23;12.75;;;;;;;6.31;89.97;97626.88;1748242;81;20956;-39
2022/04/06 00:56:59;;;;;;;18.62;12.45;;;;;;;6.28;90.17;97638.37;1748214;82;21030;-38
2022/04/06 00:59:28;;;;;;;16.77;12.93;;;;;;;6.25;91.67;97629.90;1747721;81;21079;-38
2022/04/06 01:01:55;;;;;;;14.98;12.20;;;;;;;6.27;91.32;97630.16;1748124;81;21016;-37
2022/04/06 01:04:22;;;;;;;17.00;13.30;;;;;;;6.28;91.34;97621.88;1748173;82;21016;-37
2022/04/06 01:06:50;;;;;;;14.98;12.85;;;;;;;6.28;91.91;97622.70;1748325;82;21066;-38
2022/04/06 01:09:16;;;;;;;17.05;12.82;;;;;;;6.32;91.06;97615.04;1748065;81;21377;-39
2022/04/06 01:11:45;;;;;;;16.35;12.80;;;;;;;6.37;91.30;97621.73;1748220;81;20976;-36
2022/04/06 01:14:12;;;;;;;14.95;12.10;;;;;;;6.38;90.09;97628.16;1748101;81;21000;-36
2022/04/06 01:16:39;;;;;;;16.75;12.80;;;;;;;6.44;90.13;97628.23;1748239;81;21098;-36
2022/04/06 01:19:05;;;;;;;15.80;12.43;;;;;;;6.42;90.61;97632.27;1748380;81;21007;-38
2022/04/06 01:21:31;;;;;;;15.35;12.10;;;;;;;6.45;90.54;97630.74;1748116;81;21528;-36
2022/04/06 01:23:57;;;;;;;16.25;11.20;;;;;;;6.48;90.19;97626.64;1748091;81;20968;-38
2022/04/06 01:26:24;;;;;;;14.40;10.88;;;;;;;6.47;90.83;97630.17;1748057;81;21039;-38
2022/04/06 01:28:50;;;;;;;14.68;10.88;;;;;;;6.52;90.08;97633.80;1748022;82;20999;-38
2022/04/06 01:31:16;;;;;;;14.10;11.25;;;;;;;6.49;91.02;97637.46;1748016;82;20999;-36
2022/04/06 01:33:43;;;;;;;12.13;9.95;;;;;;;6.53;90.32;97623.26;1748184;81;21027;-39
2022/04/06 01:36:09;;;;;;;14.07;10.90;;;;;;;6.56;89.60;97630.05;1748162;81;20972;-39
2022/04/06 01:38:35;;;;;;;15.32;9.93;;;;;;;6.58;90.59;97632.08;1748026;81;21034;-39
2022/04/06 01:41:01;;;;;;;12.47;10.08;;;;;;;6.60;89.47;97629.38;1748038;82;21003;-38
2022/04/06 01:43:27;;;;;;;9.85;8.73;;;;;;;6.61;90.73;97628.45;1748001;81;20956;-37
2022/04/06 01:45:54;;;;;;;10.70;8.25;;;;;;;6.64;90.21;97629.09;1748114;81;20956;-36
2022/04/06 01:48:20;;;;;;;12.85;8.25;;;;;;;6.64;90.67;97626.48;1752752;81;21059;-36
2022/04/06 01:53:31;;;;;;;10.88;8.13;;;;;;;6.66;89.67;97625.08;1761409;81;20986;-37
2022/04/06 01:55:58;;;;;;;9.05;7.87;;;;;;;6.65;90.43;97626.00;1761569;81;21039;-38
2022/04/06 01:58:24;;;;;;;8.95;8.05;;;;;;;6.66;89.84;97628.52;1761471;81;20991;-37
2022/04/06 02:00:52;;;;;;;9.85;8.03;;;;;;;6.68;90.51;97632.34;1761410;81;21155;-36
2022/04/06 02:03:18;;;;;;;14.10;11.25;;;;;;;6.72;89.84;97629.87;1761349;81;21532;-36
2022/04/06 02:05:43;;;;;;;14.47;9.43;;;;;;;6.65;90.65;97618.16;1761388;81;20956;-37
2022/04/06 02:08:10;;;;;;;11.38;8.70;;;;;;;6.70;90.47;97620.00;1761421;81;20980;-38
2022/04/06 02:10:38;;;;;;;17.67;13.83;;;;;;;6.75;89.85;97627.52;1761635;81;20978;-36
2022/04/06 02:13:04;;;;;;;;;;;;;;;6.72;90.26;97638.55;1764024;81;21179;-36
2022/04/06 02:15:30;;;;;;;12.43;10.45;;;;;;;6.72;90.64;97639.02;1761468;81;20400;-37
2022/04/06 02:17:57;;;;;;;13.50;10.95;;;;;;;6.69;91.91;97653.58;1761414;81;20987;-38
2022/04/06 02:20:23;;;;;;;11.85;9.68;;;;;;;6.75;90.46;97657.12;1761514;81;21018;-37
2022/04/06 02:22:49;;;;;;;11.33;8.60;;;;;;;6.76;90.42;97660.08;1761344;81;20975;-37
2022/04/06 02:25:15;;;;;;;10.85;8.03;;;;;;;6.78;91.01;97650.36;1761594;81;21477;-36
2022/04/06 02:27:50;;;;;;;11.95;8.30;;;;;;;6.70;91.43;97635.68;1761365;81;20991;-35
2022/04/06 02:30:17;;;;;;;12.25;8.60;;;;;;;6.76;91.77;97635.27;1761386;81;20960;-37
2022/04/06 02:32:44;;;;;;;11.20;8.48;;;;;;;6.79;90.96;97651.22;1761534;81;20992;-35
2022/04/06 02:35:10;;;;;;;9.48;7.65;;;;;;;6.75;91.92;97650.59;1761369;81;20948;-37
2022/04/06 02:37:37;;;;;;;10.40;8.30;;;;;;;6.72;92.26;97652.91;1761623;81;20991;-37
2022/04/06 02:40:04;;;;;;;10.23;7.75;;;;;;;6.80;91.09;97665.46;1761440;81;21464;-37
2022/04/06 02:43:35;;;;;;;8.95;7.55;;;;;;;6.81;91.68;97655.39;1855835;77;23463;-37
2022/04/06 02:46:02;;;;;;;10.03;7.17;;;;;;;6.82;90.44;97659.70;1827808;78;21565;-36
2022/04/06 02:48:28;;;;;;;8.65;7.42;;;;;;;6.82;91.23;97662.31;1829577;78;20990;-40
2022/04/06 02:50:54;;;;;;;8.25;7.40;;;;;;;6.83;91.73;97667.88;1829404;78;21029;-39
2022/04/06 02:53:21;;;;;;;9.43;7.00;;;;;;;6.80;91.69;97664.64;1829403;78;20983;-36
2022/04/06 02:55:47;;;;;;;9.90;8.30;;;;;;;6.84;91.27;97664.34;1829765;78;21014;-47
2022/04/06 02:58:13;;;;;;;7.80;7.00;;;;;;;6.78;92.30;97669.13;1829442;78;21016;-38
2022/04/06 03:00:38;;;;;;;7.97;7.15;;;;;;;6.76;92.89;97673.14;1829384;78;21013;-35
2022/04/06 03:03:05;;;;;;;9.08;7.83;;;;;;;6.77;91.90;97673.53;1829321;78;21464;-35
2022/04/06 03:05:31;;;;;;;12.90;7.80;;;;;;;6.78;92.01;97664.73;1829651;78;21460;-37
2022/04/06 03:07:57;;;;;;;8.60;7.20;;;;;;;6.78;92.33;97669.95;1829449;78;21029;-36
2022/04/06 03:10:22;;;;;;;7.92;6.92;;;;;;;6.82;91.82;97664.06;1829439;78;21021;-35
2022/04/06 03:12:48;;;;;;;7.95;7.03;;;;;;;6.79;92.23;97665.11;1829541;78;20986;-36
2022/04/06 03:15:19;;;;;;;8.60;7.17;;;;;;;6.81;92.03;97669.77;1829384;78;20990;-37
2022/04/06 03:17:42;;;;;;;9.23;6.97;;;;;;;6.86;92.06;97678.14;1827564;78;21092;-36
2022/04/06 03:20:13;;;;;;;7.60;6.78;;;;;;;6.86;91.35;97677.31;1829395;78;21031;-36
2022/04/06 03:22:39;;;;;;;7.87;6.83;;;;;;;6.88;91.84;97681.48;1829255;78;20979;-38
2022/04/06 03:25:06;;;;;;;8.63;7.35;;;;;;;6.90;92.17;97684.83;1829438;78;21511;-38
2022/04/06 03:27:33;;;;;;;7.25;6.55;;;;;;;6.88;92.53;97684.10;1829382;78;20962;-35
2022/04/06 03:30:00;;;;;;;7.70;6.62;;;;;;;6.84;93.52;97678.72;1829513;78;21456;-37
2022/04/06 03:32:26;;;;;;;8.00;6.58;;;;;;;6.89;92.46;97675.34;1829729;78;20958;-36
2022/04/06 03:34:52;;;;;;;6.40;5.80;;;;;;;6.83;93.39;97681.42;1829371;78;20951;-38
2022/04/06 03:37:18;;;;;;;7.37;6.65;;;;;;;6.87;93.04;97686.81;1829355;78;20990;-37
2022/04/06 03:39:44;;;;;;;9.10;6.17;;;;;;;6.85;92.93;97691.30;1829356;78;20958;-35
2022/04/06 03:42:10;;;;;;;7.67;6.87;;;;;;;6.86;92.59;97688.59;1822317;78;21576;-38
2022/04/06 03:44:36;;;;;;;7.25;6.55;;;;;;;6.84;93.29;97690.48;1807840;79;21448;-37
2022/04/06 03:47:01;;;;;;;8.03;6.40;;;;;;;6.89;92.15;97692.32;1807918;79;21019;-37
2022/04/06 03:49:27;;;;;;;7.75;5.55;;;;;;;6.89;92.11;97688.85;1807879;78;20979;-38
2022/04/06 03:51:53;;;;;;;6.05;5.45;;;;;;;6.90;92.36;97687.45;1807865;79;21010;-35
2022/04/06 03:54:19;;;;;;;6.45;5.85;;;;;;;6.92;92.31;97687.35;1807319;79;20979;-38
2022/04/06 03:56:45;;;;;;;6.30;5.70;;;;;;;6.92;92.65;97706.47;1807370;79;21779;-36
2022/04/06 03:59:10;;;;;;;6.05;5.45;;;;;;;6.90;93.75;97700.52;1807265;79;20979;-37
2022/04/06 04:01:36;;;;;;;7.20;5.33;;;;;;;6.94;93.50;97703.77;1807179;79;21002;-37
2022/04/06 04:04:04;;;;;;;5.80;5.25;;;;;;;6.95;93.19;97705.89;1807248;79;20972;-37
2022/04/06 04:06:33;;;;;;;6.47;5.33;;;;;;;6.97;92.77;97706.63;1807244;79;21421;-36
2022/04/06 04:08:59;;;;;;;6.03;5.42;;;;;;;6.92;93.92;97699.94;1807257;79;21035;-37
2022/04/06 04:11:25;;;;;;;5.83;5.33;;;;;;;6.96;93.05;97694.52;1807245;79;21096;-37
2022/04/06 04:13:51;;;;;;;5.67;5.17;;;;;;;6.90;92.93;97696.59;1807206;79;21441;-37
2022/04/06 04:16:16;;;;;;;6.60;5.95;;;;;;;6.91;93.00;97696.97;1807274;79;20956;-37
2022/04/06 04:18:42;;;;;;;6.58;5.97;;;;;;;6.93;93.29;97704.72;1807350;79;21026;-38
2022/04/06 04:23:52;;;;;;;7.50;6.37;;;;;;;6.96;93.66;97701.05;1807329;79;21067;-36
2022/04/06 04:26:18;;;;;;;6.87;6.25;;;;;;;6.96;93.22;97705.80;1807310;79;20975;-37
2022/04/06 04:28:44;;;;;;;7.83;7.05;;;;;;;6.94;94.56;97704.23;1807227;79;21018;-37
2022/04/06 04:31:09;;;;;;;8.58;6.92;;;;;;;6.99;93.34;97706.09;1807211;79;20975;-37
2022/04/06 04:33:35;;;;;;;7.17;6.47;;;;;;;7.01;94.16;97702.42;1807213;79;20979;-36
2022/04/06 04:36:01;;;;;;;7.72;6.97;;;;;;;7.02;94.30;97711.95;1807162;79;20975;-37
2022/04/06 04:38:27;;;;;;;7.72;7.03;;;;;;;7.06;93.18;97709.97;1807277;79;20988;-37
2022/04/06 04:40:54;;;;;;;9.40;6.47;;;;;;;7.06;94.07;97696.91;1807181;79;21035;-35
2022/04/06 04:43:20;;;;;;;7.35;6.67;;;;;;;7.07;95.01;97707.70;1810965;78;21003;-37
2022/04/06 04:45:46;;;;;;;7.12;5.75;;;;;;;7.10;93.92;97704.42;1812652;79;21531;-37
2022/04/06 04:48:12;;;;;;;6.92;6.33;;;;;;;7.10;94.47;97702.28;1812578;79;20963;-39
2022/04/06 04:50:38;;;;;;;8.40;6.87;;;;;;;7.14;94.05;97699.00;1812565;79;20975;-38
2022/04/06 04:53:05;;;;;;;7.47;6.65;;;;;;;7.16;94.29;97699.25;1812612;79;20960;-38
2022/04/06 04:55:32;;;;;;;7.87;7.10;;;;;;;7.17;94.14;97703.55;1812721;79;20982;-36
2022/04/06 04:57:59;;;;;;;8.38;7.47;;;;;;;7.19;94.18;97703.45;1812816;79;20956;-38
2022/04/06 05:00:25;;;;;;;9.70;7.75;;;;;;;7.23;93.83;97706.22;1812588;79;21111;-36
2022/04/06 05:02:51;;;;;;;9.25;8.28;;;;;;;7.26;93.90;97708.16;1812627;79;20983;-36
2022/04/06 05:05:17;;;;;;;9.40;8.28;;;;;;;7.23;94.69;97708.36;1812681;79;21021;-38
2022/04/06 05:07:43;;;;;;;9.65;8.63;;;;;;;7.25;94.66;97705.64;1812650;79;21014;-36
2022/04/06 05:10:10;;;;;;;11.28;8.43;;;;;;;7.28;94.29;97707.59;1812575;78;20959;-36
2022/04/06 05:12:36;;;;;;;11.90;9.23;;;;;;;7.33;94.28;97714.27;1812853;79;21506;-37
2022/04/06 05:15:08;;;;;;;11.15;9.90;;;;;;;7.37;93.74;97721.83;1812651;79;21066;-38
2022/04/06 05:17:32;;;;;;;14.35;9.85;;;;;;;7.35;94.67;97720.23;1810824;79;21475;-38
2022/04/06 05:19:58;;;;;;;9.53;8.60;;;;;;;7.41;94.20;97721.15;1784043;79;20971;-38
2022/04/06 05:22:24;;;;;;;11.63;10.30;;;;;;;7.39;94.86;97719.11;1812586;79;21371;-37
2022/04/06 05:24:50;;;;;;;12.95;11.20;;;;;;;7.42;94.54;97720.19;1812547;79;20975;-38
2022/04/06 05:27:16;;;;;;;13.68;11.80;;;;;;;7.43;94.98;97724.49;1812622;78;20943;-37
2022/04/06 05:29:42;;;;;;;14.60;12.15;;;;;;;7.46;94.51;97720.38;1812690;79;20975;-38
2022/04/06 05:32:08;;;;;;;13.53;12.13;;;;;;;7.52;94.28;97725.66;1812584;78;21885;-37
2022/04/06 05:34:35;;;;;;;16.48;13.60;;;;;;;7.55;93.88;97720.19;1812896;79;21010;-37
2022/04/06 05:37:03;;;;;;;14.15;12.55;;;;;;;7.53;94.54;97720.33;1812590;79;20947;-38
2022/04/06 05:39:29;;;;;;;16.48;12.63;;;;;;;7.54;94.94;97718.06;1811754;79;21007;-38
2022/04/06 05:41:55;;;;;;;12.25;10.95;;;;;;;7.56;94.43;97727.11;1812836;79;21525;-38
2022/04/06 05:44:21;;;;;;;12.55;11.25;;;;;;;7.56;94.67;97720.09;1817457;79;20999;-39
2022/04/06 05:46:47;;;;;;;13.38;12.00;;;;;;;7.55;94.72;97721.50;1817477;79;21013;-36
2022/04/06 05:49:12;;;;;;;14.10;12.07;;;;;;;7.59;94.56;97727.74;1817465;79;20971;-37
2022/04/06 05:51:38;;;;;;;14.05;12.05;;;;;;;7.58;95.06;97726.05;1817461;79;21017;-36
2022/04/06 05:54:04;;;;;;;14.85;11.93;;;;;;;7.58;94.87;97722.13;1817465;79;20935;-38
2022/04/06 05:56:31;;;;;;;14.10;12.60;;;;;;;7.58;95.08;97729.98;1817529;79;21006;-39
2022/04/06 05:58:57;;;;;;;13.00;11.70;;;;;;;7.63;95.68;97724.45;1817803;79;21394;-37
2022/04/06 06:01:23;;;;;;;13.70;11.85;;;;;;;7.63;95.68;97724.45;1817421;79;21379;-38
2022/04/06 06:03:50;;;;;;;14.98;12.35;;;;;;;7.63;95.90;97733.61;1817482;79;21432;-39
2022/04/06 06:06:15;;;;;;;15.03;12.70;;;;;;;7.65;96.63;97729.93;1817452;79;20952;-38
2022/04/06 06:08:41;;;;;;;16.05;12.05;;;;;;;7.70;95.63;97730.94;1817509;79;20964;-38
2022/04/06 06:11:08;;;;;;;14.05;12.47;;;;;;;7.75;95.38;97732.77;1817393;79;20988;-38
2022/04/06 06:13:34;;;;;;;15.72;13.05;;;;;;;7.76;95.67;97730.98;1817431;79;21022;-37
2022/04/06 06:16:00;;;;;;;16.77;13.00;;;;;;;7.77;96.02;97736.59;1817481;79;21464;-39
2022/04/06 06:18:28;;;;;;;16.02;12.60;;;;;;;7.76;96.33;97728.37;1817450;79;20983;-39
2022/04/06 06:20:56;;;;;;;13.45;12.05;;;;;;;7.78;95.71;97731.23;1817547;79;21017;-36
2022/04/06 06:23:22;;;;;;;14.70;11.95;;;;;;;7.80;96.25;97737.19;1817314;79;21555;-36
2022/04/06 06:25:48;;;;;;;13.03;11.35;;;;;;;7.84;95.62;97724.73;1817523;79;20968;-37
2022/04/06 06:28:13;;;;;;;13.00;11.53;;;;;;;7.82;96.24;97730.09;1817427;79;20979;-36
2022/04/06 06:30:39;;;;;;;14.33;12.70;;;;;;;7.85;95.38;97734.27;1817423;79;20963;-37
2022/04/06 06:33:05;;;;;;;13.70;12.05;;;;;;;7.88;95.42;97737.52;1817430;79;21069;-37
2022/04/06 06:35:31;;;;;;;13.53;12.03;;;;;;;7.89;95.37;97731.80;1817348;79;20928;-35
2022/04/06 06:37:57;;;;;;;14.47;12.00;;;;;;;7.91;95.80;97735.14;1817335;79;21013;-37
2022/04/06 06:40:26;;;;;;;12.88;11.53;;;;;;;7.91;96.10;97739.07;1817399;79;20959;-38
2022/04/06 06:42:53;;;;;;;13.22;11.22;;;;;;;7.95;95.70;97726.61;1814244;79;21163;-37
2022/04/06 06:45:19;;;;;;;13.98;11.05;;;;;;;7.96;95.65;97740.91;1807143;79;20975;-38
2022/04/06 06:47:46;;;;;;;12.10;10.58;;;;;;;7.98;95.51;97732.47;1807247;79;21081;-38
2022/04/06 06:50:15;;;;;;;12.55;10.28;;;;;;;8.04;95.39;97732.06;1807238;78;20975;-36
2022/04/06 06:52:40;;;;;;;11.93;10.65;;;;;;;8.04;95.22;97736.44;1807150;79;21495;-38
2022/04/06 06:55:10;;;;;;;14.53;10.98;;;;;;;8.04;94.92;97733.81;1807198;79;21018;-36
2022/04/06 06:57:36;;;;;;;11.73;9.98;;;;;;;8.07;94.73;97744.08;1807321;79;21015;-38
2022/04/06 07:00:05;;;;;;;13.05;10.40;;;;;;;8.08;94.73;97743.98;1807257;79;21026;-39
2022/04/06 07:02:31;;;;;;;12.50;10.72;;;;;;;8.10;94.34;97745.67;1807227;79;20963;-39
2022/04/06 07:04:57;;;;;;;10.95;9.90;;;;;;;8.16;93.98;97749.16;1807238;79;21007;-39
2022/04/06 07:07:23;;;;;;;10.95;9.83;;;;;;;8.18;94.14;97752.50;1807154;79;20968;-39
2022/04/06 07:09:48;;;;;;;9.88;8.98;;;;;;;8.12;94.99;97749.84;1807227;79;21008;-37
2022/04/06 07:12:14;;;;;;;9.63;8.35;;;;;;;8.22;94.98;97750.02;1807203;79;20972;-38
2022/04/06 07:14:40;;;;;;;11.10;9.18;;;;;;;8.27;95.29;97742.69;1807198;79;20971;-38
2022/04/06 07:17:06;;;;;;;11.12;9.93;;;;;;;8.33;95.11;97750.13;1807172;79;21460;-37
2022/04/06 07:19:31;;;;;;;11.35;9.05;;;;;;;8.37;94.35;97741.09;1807206;79;21413;-38
2022/04/06 07:21:57;;;;;;;12.18;9.43;;;;;;;8.35;94.98;97761.33;1807130;79;20970;-38
2022/04/06 07:24:23;;;;;;;9.65;8.48;;;;;;;8.39;94.41;97748.37;1807164;79;21047;-39
2022/04/06 07:26:49;;;;;;;10.32;8.65;;;;;;;8.36;95.41;97752.51;1807196;79;21010;-38
2022/04/06 07:29:15;;;;;;;12.03;8.70;;;;;;;8.40;95.17;97757.06;1807213;79;20936;-37
2022/04/06 07:31:44;;;;;;;9.40;8.48;;;;;;;8.44;95.08;97758.53;1807284;79;21077;-38
2022/04/06 07:34:10;;;;;;;10.28;9.18;;;;;;;8.47;94.98;97755.70;1807298;79;20960;-37
2022/04/06 07:36:37;;;;;;;8.53;7.72;;;;;;;8.52;94.95;97761.94;1807283;79;20971;-38
2022/04/06 07:39:04;;;;;;;8.73;7.83;;;;;;;8.59;94.01;97769.25;1807258;79;20971;-37
2022/04/06 07:41:32;;;;;;;10.03;9.03;;;;;;;8.61;93.84;97766.52;1807396;79;20948;-37
2022/04/06 07:43:59;;;;;;;10.70;8.38;;;;;;;8.57;94.18;97762.46;1810677;79;20996;-37
2022/04/06 07:46:24;;;;;;;8.85;7.95;;;;;;;8.64;94.06;97770.21;1812656;79;21006;-38
2022/04/06 07:48:50;;;;;;;9.70;8.30;;;;;;;8.64;94.70;97762.35;1812679;79;20995;-37
2022/04/06 07:51:17;;;;;;;9.28;7.97;;;;;;;8.71;94.30;97767.52;1812764;79;21002;-37
2022/04/06 07:53:43;;;;;;;10.05;7.97;;;;;;;8.80;94.03;97764.27;1812748;79;20975;-36
2022/04/06 07:56:09;;;;;;;7.83;7.03;;;;;;;8.84;93.78;97761.77;1812691;79;20975;-39
2022/04/06 07:58:35;;;;;;;8.65;7.65;;;;;;;8.89;93.76;97759.28;1812647;79;20948;-38
2022/04/06 08:01:05;;;;;;;8.35;7.58;;;;;;;8.92;93.24;97771.69;1812663;79;20970;-38
2022/04/06 08:03:30;;;;;;;7.42;6.45;;;;;;;8.97;93.22;97780.55;1812429;79;20979;-38
2022/04/06 08:05:56;;;;;;;7.72;7.03;;;;;;;8.96;93.19;97773.61;1812680;79;21039;-39
2022/04/06 08:08:22;;;;;;;6.90;6.20;;;;;;;9.02;92.83;97775.78;1812705;79;20979;-37
2022/04/06 08:10:48;;;;;;;6.90;6.28;;;;;;;9.09;92.44;97773.55;1812732;79;20975;-36
2022/04/06 08:13:14;;;;;;;7.58;6.85;;;;;;;9.05;92.89;97784.74;1812690;79;21570;-38
2022/04/06 08:15:41;;;;;;;7.08;6.33;;;;;;;9.08;92.81;97783.22;1812604;78;21006;-35
2022/04/06 08:18:07;;;;;;;7.37;6.62;;;;;;;9.07;92.78;97782.02;1812693;79;20967;-36
2022/04/06 08:20:34;;;;;;;7.25;6.55;;;;;;;9.07;92.93;97782.02;1812664;79;20979;-38
2022/04/06 08:22:59;;;;;;;7.67;6.45;;;;;;;9.16;92.62;97791.34;1812909;79;21018;-38
2022/04/06 08:25:26;;;;;;;7.67;6.92;;;;;;;9.20;92.61;97794.12;1806345;79;20944;-36
2022/04/06 08:27:53;;;;;;;7.75;6.97;;;;;;;9.26;92.28;97785.41;1782432;79;20963;-36
2022/04/06 08:30:20;;;;;;;7.03;6.33;;;;;;;9.32;92.54;97783.66;1759105;81;21468;-36
2022/04/06 08:32:47;;;;;;;8.23;7.42;;;;;;;9.40;92.05;97776.05;1759304;81;21031;-37
2022/04/06 08:35:12;;;;;;;7.35;6.47;;;;;;;9.46;91.80;97782.62;1759364;81;20991;-38
2022/04/06 08:37:39;;;;;;;7.58;6.83;;;;;;;9.41;91.68;97788.23;1759129;81;21488;-38
2022/04/06 08:40:13;;;;;;;7.58;6.87;;;;;;;9.46;91.24;97802.30;1759271;81;21200;-38
2022/04/06 08:42:39;;;;;;;8.63;7.72;;;;;;;9.36;92.06;97817.90;1759036;81;20973;-38
2022/04/06 08:45:06;;;;;;;8.45;7.65;;;;;;;9.33;91.74;97797.98;1779037;80;21532;-39
2022/04/06 08:47:33;;;;;;;7.87;7.08;;;;;;;9.29;91.58;97804.39;1779352;81;21500;-39
2022/04/06 08:50:04;;;;;;;9.68;7.92;;;;;;;9.21;92.12;97796.27;1779167;80;21010;-39
2022/04/06 08:52:34;;;;;;;9.05;7.72;;;;;;;9.20;92.16;97795.89;1779198;80;21328;-40
2022/04/06 08:55:01;;;;;;;8.40;7.58;;;;;;;9.20;92.41;97801.98;1779142;81;20984;-38
2022/04/06 08:57:28;;;;;;;9.13;7.87;;;;;;;9.20;92.16;97801.98;1779150;81;21022;-38
2022/04/06 08:59:55;;;;;;;8.25;7.45;;;;;;;9.19;92.26;97809.48;1777650;80;21456;-38
2022/04/06 09:02:23;;;;;;;8.33;7.53;;;;;;;9.18;92.06;97797.30;1779126;80;21547;-37
2022/04/06 09:04:51;;;;;;;10.10;7.15;;;;;;;9.14;92.44;97797.17;1779208;81;20988;-37
2022/04/06 09:07:23;;;;;;;8.13;7.35;;;;;;;9.19;92.17;97811.28;1807592;79;21091;-39
2022/04/06 09:09:51;;;;;;;8.48;7.40;;;;;;;9.22;91.36;97802.71;1817117;79;20955;-36
2022/04/06 09:12:20;;;;;;;8.73;7.65;;;;;;;9.23;91.49;97798.30;1817515;79;20983;-37
2022/04/06 09:14:47;;;;;;;7.40;6.70;;;;;;;9.16;91.71;97808.88;1816937;79;21007;-46
2022/04/06 09:17:18;;;;;;;7.85;6.78;;;;;;;9.26;91.14;97802.46;1817718;79;20975;-38
2022/04/06 09:19:52;;;;;;;9.65;7.25;;;;;;;9.35;91.02;97809.65;1817626;79;20963;-37
2022/04/06 09:22:18;;;;;;;8.55;7.22;;;;;;;9.38;90.92;97805.50;1817507;79;21727;-38
2022/04/06 09:24:44;;;;;;;9.90;7.53;;;;;;;9.40;90.32;97809.70;1795054;79;20967;-37
2022/04/06 09:27:10;;;;;;;7.67;6.87;;;;;;;9.31;90.90;97799.03;1817685;79;20956;-38
2022/04/06 09:29:35;;;;;;;9.23;7.00;;;;;;;9.38;90.21;97806.81;1817642;79;21500;-37
2022/04/06 09:32:10;;;;;;;8.45;7.55;;;;;;;9.48;89.56;97806.50;1817560;79;20956;-38
2022/04/06 09:34:37;;;;;;;7.67;6.78;;;;;;;9.41;89.22;97814.47;1817566;79;20932;-43
2022/04/06 09:37:28;;;;;;;7.20;6.42;;;;;;;9.49;89.10;97816.52;1817825;79;20964;-39
2022/04/06 09:39:56;;;;;;;7.40;6.70;;;;;;;9.55;88.86;97810.34;1817586;79;21011;-39
2022/04/06 09:42:27;;;;;;;7.75;6.95;;;;;;;9.71;88.35;97814.42;1817533;79;20947;-40
2022/04/06 09:47:58;;;;;;;10.68;7.65;;;;;;;9.80;87.92;97812.41;1807364;79;20931;-37
2022/04/06 09:50:24;;;;;;;8.98;7.75;;;;;;;9.82;87.69;97806.56;1806888;79;21949;-38
2022/04/06 09:52:52;;;;;;;8.85;7.35;;;;;;;9.82;87.94;97810.98;1806497;79;20958;-36
2022/04/06 09:55:20;;;;;;;10.93;7.87;;;;;;;9.70;88.21;97809.66;1807209;79;21477;-39
2022/04/06 09:57:51;;;;;;;10.00;7.72;;;;;;;9.56;89.19;97801.50;1807148;79;20970;-34
2022/04/06 10:00:22;;;;;;;13.43;8.78;;;;;;;9.58;89.33;97799.59;1807121;79;21487;-39
2022/04/06 10:02:56;;;;;;;10.68;8.00;;;;;;;9.61;89.34;97804.62;1807116;79;21431;-39
2022/04/06 10:05:24;;;;;;;10.70;7.75;;;;;;;9.64;89.69;97795.70;1802633;79;21012;-38
2022/04/06 10:07:53;;;;;;;10.98;8.60;;;;;;;9.61;90.03;97795.44;1807006;79;21517;-36
2022/04/06 10:10:23;;;;;;;9.30;7.92;;;;;;;9.55;90.45;97791.11;1807173;79;20964;-36
2022/04/06 10:12:47;;;;;;;10.85;7.60;;;;;;;9.58;90.27;97797.45;1806653;79;20969;-37
2022/04/06 10:15:14;;;;;;;10.08;7.42;;;;;;;9.50;91.73;97801.97;1807192;79;20981;-39
2022/04/06 10:17:39;;;;;;;9.90;7.22;;;;;;;9.51;91.85;97811.50;1807518;79;21000;-37
2022/04/06 10:20:17;;;;;;;11.53;8.43;;;;;;;9.56;91.56;97801.50;1807114;78;21018;-37
2022/04/06 10:22:47;;;;;;;;;;;;;;;9.63;91.12;97796.64;1809798;79;20970;-38
2022/04/06 10:25:39;;;;;;;9.98;7.67;;;;;;;9.52;91.64;97800.55;1806097;79;20110;-38
2022/04/06 10:28:11;;;;;;;11.25;7.53;;;;;;;9.60;91.88;97816.54;1805526;79;20949;-38
2022/04/06 10:30:38;;;;;;;9.15;7.87;;;;;;;9.70;91.57;97799.16;1807099;79;21431;-35
2022/04/06 10:33:20;;;;;;;11.03;7.83;;;;;;;9.74;91.38;97811.58;1807394;79;21016;-37
2022/04/06 10:35:46;;;;;;;9.83;7.53;;;;;;;9.80;89.65;97804.54;1806976;79;20977;-38
2022/04/06 10:38:15;;;;;;;7.53;6.72;;;;;;;9.77;89.13;97802.99;1807182;79;20958;-38
2022/04/06 10:40:50;;;;;;;9.38;6.47;;;;;;;9.79;89.16;97802.88;1807087;79;21044;-37
2022/04/06 10:43:41;;;;;;;7.85;6.60;;;;;;;9.94;88.91;97803.02;1807260;79;21892;-37
2022/04/06 10:46:16;;;;;;;8.50;6.70;;;;;;;10.00;87.63;97801.70;1817380;79;20949;-39
2022/04/06 10:49:09;;;;;;;10.75;6.67;;;;;;;10.09;87.10;97805.42;1817446;79;20996;-40
2022/04/06 10:51:37;;;;;;;11.88;6.78;;;;;;;10.20;87.25;97810.67;1816718;79;20953;-37
2022/04/06 10:54:18;;;;;;;6.37;5.72;;;;;;;10.26;86.40;97807.59;1817321;79;20958;-39
2022/04/06 10:56:55;;;;;;;10.80;5.60;;;;;;;10.24;85.82;97804.25;1817407;79;20984;-38
2022/04/06 10:59:28;;;;;;;6.12;4.67;;;;;;;10.22;85.34;97811.39;1817266;79;21497;-39
2022/04/06 11:02:14;;;;;;;5.08;4.58;;;;;;;10.24;84.09;97812.13;1817266;79;21482;-36
2022/04/06 11:04:40;;;;;;;8.05;5.05;;;;;;;10.18;84.11;97797.66;1817915;79;20958;-39
2022/04/06 11:07:08;;;;;;;6.55;4.70;;;;;;;10.25;84.21;97806.39;1817615;79;21458;-39
2022/04/06 11:12:30;;;;;;;5.80;5.20;;;;;;;10.20;83.18;97802.80;1817642;79;20098;-36
2022/04/06 11:15:04;;;;;;;6.55;4.47;;;;;;;10.23;82.93;97803.88;1817614;79;20926;-38
2022/04/06 11:17:34;;;;;;;5.45;4.37;;;;;;;10.29;83.09;97808.64;1817668;79;21458;-38
2022/04/06 11:20:16;;;;;;;8.05;4.65;;;;;;;10.31;82.73;97819.90;1817758;79;21008;-37
2022/04/06 11:22:54;;;;;;;6.05;4.42;;;;;;;10.37;82.37;97820.75;1817650;79;20981;-39
2022/04/06 11:25:23;;;;;;;8.50;4.85;;;;;;;10.40;82.28;97826.23;1817568;79;20957;-39
2022/04/06 11:27:50;;;;;;;5.37;4.50;;;;;;;10.35;82.19;97813.92;1817612;79;21138;-36
2022/04/06 11:30:23;;;;;;;6.30;4.30;;;;;;;10.29;81.44;97827.03;1817878;79;20942;-37
2022/04/06 11:33:00;;;;;;;11.90;5.03;;;;;;;10.43;81.23;97813.35;1817616;79;20973;-38
2022/04/06 11:35:30;;;;;;;12.37;4.80;;;;;;;10.58;81.37;97806.87;1817622;79;20969;-39
2022/04/06 11:37:57;;;;;;;5.97;4.28;;;;;;;10.72;81.27;97815.81;1817599;79;20965;-39
2022/04/06 11:40:25;;;;;;;4.97;4.35;;;;;;;10.88;80.67;97815.92;1817596;79;20964;-38
2022/04/06 11:42:54;;;;;;;9.53;4.72;;;;;;;10.95;79.38;97821.02;1817608;79;21462;-38
2022/04/06 11:45:29;;;;;;;7.92;5.20;;;;;;;11.04;79.25;97816.82;1817164;79;20984;-39
2022/04/06 11:48:07;;;;;;;10.93;6.20;;;;;;;11.12;78.93;97817.05;1817498;79;21614;-39
2022/04/06 11:50:38;;;;;;;11.12;6.58;;;;;;;11.21;79.35;97810.22;1817416;79;20987;-37